Time,TemperatureF,DewpointF,PressureIn,WindDirection,WindDirectionDegrees,WindSpeedMPH,WindSpeedGustMPH,Humidity,HourlyPrecipIn,Conditions,Clouds,dailyrainin,SoftwareType,DateUTC
2013-07-10 00:07:00,73.9,73.0,30.10,NE,38,0.0,-999.0,96,-99.99,,,0.00,weatherlink.com 1.10,2013-07-10 04:07:00,
2013-07-10 00:22:00,73.7,73.0,30.09,NE,39,0.0,-999.0,96,-99.99,,,0.00,weatherlink.com 1.10,2013-07-10 04:22:00,
2013-07-10 00:37:00,73.9,73.0,30.10,NE,39,0.0,-999.0,97,-99.99,,,0.00,weatherlink.com 1.10,2013-07-10 04:37:00,
2013-07-10 00:52:00,73.9,73.0,30.10,NE,38,0.0,-999.0,97,-99.99,,,0.00,weatherlink.com 1.10,2013-07-10 04:52:00,
2013-07-10 01:07:00,73.5,73.0,30.10,NE,38,0.0,-999.0,97,-99.99,,,0.00,weatherlink.com 1.10,2013-07-10 05:07:00,
2013-07-10 01:22:00,73.7,73.0,30.10,NE,38,0.0,-999.0,97,-99.99,,,0.00,weatherlink.com 1.10,2013-07-10 05:22:00,
2013-07-10 01:37:00,73.4,73.0,30.09,NE,39,0.0,-999.0,97,-99.99,,,0.00,weatherlink.com 1.10,2013-07-10 05:37:00,
2013-07-10 01:52:00,73.3,72.0,30.09,NE,39,0.0,-999.0,97,-99.99,,,0.00,weatherlink.com 1.10,2013-07-10 05:52:00,
2013-07-10 02:07:00,73.2,72.0,30.09,NE,39,0.0,-999.0,97,-99.99,,,0.00,weatherlink.com 1.10,2013-07-10 06:07:00,
2013-07-10 02:22:00,72.9,72.0,30.08,NE,39,0.0,-999.0,97,-99.99,,,0.00,weatherlink.com 1.10,2013-07-10 06:22:00,
2013-07-10 02:37:00,72.7,72.0,30.09,NE,39,0.0,-999.0,97,-99.99,,,0.00,weatherlink.com 1.10,2013-07-10 06:37:00,
2013-07-10 02:52:00,72.5,72.0,30.07,NE,39,0.0,-999.0,98,-99.99,,,0.00,weatherlink.com 1.10,2013-07-10 06:52:00,
2013-07-10 03:07:00,72.3,72.0,30.07,NE,39,0.0,-999.0,98,-99.99,,,0.00,weatherlink.com 1.10,2013-07-10 07:07:00,
2013-07-10 03:22:00,72.1,72.0,30.07,NE,39,0.0,-999.0,98,-99.99,,,0.00,weatherlink.com 1.10,2013-07-10 07:22:00,
2013-07-10 03:31:00,72.1,71.5,30.08,NNE,33,0.0,0.0,98,0.00,,,0.00,Wunderground v.1.15,2013-07-10 07:31:00,
2013-07-10 03:37:00,72.1,72.0,30.07,NE,38,0.0,-999.0,98,-99.99,,,0.00,weatherlink.com 1.10,2013-07-10 07:37:00,
2013-07-10 03:45:00,72.2,71.6,30.08,NNE,33,0.0,0.0,98,0.00,,,0.00,Wunderground v.1.15,2013-07-10 07:45:00,
2013-07-10 03:50:00,72.1,71.5,30.08,NNE,32,0.0,0.0,98,0.00,,,0.00,Wunderground v.1.15,2013-07-10 07:50:00,
2013-07-10 03:55:00,72.1,71.5,30.08,NNE,33,0.0,0.0,98,0.00,,,0.00,Wunderground v.1.15,2013-07-10 07:55:00,
2013-07-10 04:00:00,72.1,71.5,30.08,NNE,33,0.0,0.0,98,0.00,,,0.00,Wunderground v.1.15,2013-07-10 08:00:00,
2013-07-10 04:05:00,72.3,71.7,30.08,NNE,33,0.0,0.0,98,0.00,,,0.00,Wunderground v.1.15,2013-07-10 08:05:00,
2013-07-10 04:15:00,72.3,71.7,30.08,NNE,33,0.0,0.0,98,0.00,,,0.00,Wunderground v.1.15,2013-07-10 08:15:00,
2013-07-10 04:20:00,72.2,71.6,30.09,NNE,33,0.0,0.0,98,0.00,,,0.00,Wunderground v.1.15,2013-07-10 08:20:00,
2013-07-10 04:25:00,72.1,71.5,30.09,NNE,33,0.0,0.0,98,0.00,,,0.00,Wunderground v.1.15,2013-07-10 08:25:00,
2013-07-10 04:35:00,72.0,71.4,30.08,NNE,33,0.0,0.0,98,0.00,,,0.00,Wunderground v.1.15,2013-07-10 08:35:00,
2013-07-10 04:40:00,71.9,71.3,30.09,NNE,32,0.0,0.0,98,0.00,,,0.00,Wunderground v.1.15,2013-07-10 08:40:00,
2013-07-10 04:45:00,71.8,71.2,30.09,NNE,33,0.0,0.0,98,0.00,,,0.00,Wunderground v.1.15,2013-07-10 08:45:00,
2013-07-10 04:50:00,71.7,71.1,30.08,NNE,32,0.0,0.0,98,0.00,,,0.00,Wunderground v.1.15,2013-07-10 08:50:00,
2013-07-10 04:55:00,71.5,70.9,30.08,NNE,33,0.0,0.0,98,0.00,,,0.00,Wunderground v.1.15,2013-07-10 08:55:00,
2013-07-10 05:00:00,71.6,71.0,30.08,NNE,33,0.0,0.0,98,0.00,,,0.00,Wunderground v.1.15,2013-07-10 09:00:00,
2013-07-10 05:05:00,71.5,70.9,30.08,NNE,33,0.0,0.0,98,0.00,,,0.00,Wunderground v.1.15,2013-07-10 09:05:00,
2013-07-10 05:10:00,71.5,70.9,30.08,NNE,33,0.0,0.0,98,0.00,,,0.00,Wunderground v.1.15,2013-07-10 09:10:00,
2013-07-10 05:20:00,71.5,70.9,30.07,NNE,33,0.0,0.0,98,0.00,,,0.00,Wunderground v.1.15,2013-07-10 09:20:00,
2013-07-10 05:25:00,71.3,70.7,30.07,NNE,33,0.0,0.0,98,0.00,,,0.00,Wunderground v.1.15,2013-07-10 09:25:00,
2013-07-10 05:30:00,71.3,70.7,30.07,NNE,33,0.0,0.0,98,0.00,,,0.00,Wunderground v.1.15,2013-07-10 09:30:00,
2013-07-10 05:35:00,71.2,70.6,30.08,NNE,33,0.0,0.0,98,0.00,,,0.00,Wunderground v.1.15,2013-07-10 09:35:00,
2013-07-10 05:40:00,71.2,70.6,30.07,NNE,32,0.0,0.0,98,0.00,,,0.00,Wunderground v.1.15,2013-07-10 09:40:00,
2013-07-10 05:45:00,71.1,70.5,30.07,NNE,33,0.0,0.0,98,0.00,,,0.00,Wunderground v.1.15,2013-07-10 09:45:00,
2013-07-10 05:52:00,71.0,70.0,30.07,NE,39,0.0,-999.0,98,-99.99,,,0.00,weatherlink.com 1.10,2013-07-10 09:52:00,
2013-07-10 06:00:00,71.1,70.5,30.07,NNE,33,0.0,0.0,98,0.00,,,0.00,Wunderground v.1.15,2013-07-10 10:00:00,
2013-07-10 06:07:00,70.9,70.0,30.07,NE,39,0.0,-999.0,98,-99.99,,,0.00,weatherlink.com 1.10,2013-07-10 10:07:00,
2013-07-10 06:15:00,71.0,70.4,30.07,NNE,33,0.0,0.0,98,0.00,,,0.00,Wunderground v.1.15,2013-07-10 10:15:00,
2013-07-10 06:20:00,70.9,70.3,30.07,NNE,33,0.0,0.0,98,0.00,,,0.00,Wunderground v.1.15,2013-07-10 10:20:00,
2013-07-10 06:30:00,70.9,70.3,30.07,NNE,33,0.0,0.0,98,0.00,,,0.00,Wunderground v.1.15,2013-07-10 10:30:00,
2013-07-10 06:35:00,70.9,70.3,30.07,NNE,33,0.0,0.0,98,0.00,,,0.00,Wunderground v.1.15,2013-07-10 10:35:00,
2013-07-10 06:40:00,70.9,70.3,30.08,NNE,33,0.0,0.0,98,0.00,,,0.00,Wunderground v.1.15,2013-07-10 10:40:00,
2013-07-10 06:45:00,71.1,70.8,30.08,NNE,33,0.0,0.0,99,0.00,,,0.00,Wunderground v.1.15,2013-07-10 10:45:00,
2013-07-10 06:52:00,71.0,71.0,30.07,NE,39,0.0,-999.0,99,-99.99,,,0.00,weatherlink.com 1.10,2013-07-10 10:52:00,
2013-07-10 07:00:00,71.4,71.1,30.08,NNE,32,0.0,0.0,99,0.00,,,0.00,Wunderground v.1.15,2013-07-10 11:00:00,
2013-07-10 07:05:00,71.6,71.3,30.08,NNE,33,0.0,0.0,99,0.00,,,0.00,Wunderground v.1.15,2013-07-10 11:05:00,
2013-07-10 07:10:00,71.7,71.4,30.08,NNE,33,0.0,0.0,99,0.00,,,0.00,Wunderground v.1.15,2013-07-10 11:10:00,
2013-07-10 07:15:00,71.8,71.5,30.08,NNE,33,0.0,0.0,99,0.00,,,0.00,Wunderground v.1.15,2013-07-10 11:15:00,
2013-07-10 07:20:00,71.8,71.5,30.08,NNE,32,0.0,0.0,99,0.00,,,0.00,Wunderground v.1.15,2013-07-10 11:20:00,
2013-07-10 07:25:00,71.9,71.6,30.08,NNE,32,0.0,0.0,99,0.00,,,0.00,Wunderground v.1.15,2013-07-10 11:25:00,
2013-07-10 07:35:00,72.0,71.7,30.08,NNE,32,0.0,0.0,99,0.00,,,0.00,Wunderground v.1.15,2013-07-10 11:35:00,
2013-07-10 07:40:00,72.2,71.9,30.08,NNE,33,0.0,0.0,99,0.00,,,0.00,Wunderground v.1.15,2013-07-10 11:40:00,
2013-07-10 07:45:00,72.4,72.1,30.08,NNE,33,0.0,0.0,99,0.00,,,0.00,Wunderground v.1.15,2013-07-10 11:45:00,
2013-07-10 07:50:00,72.6,72.3,30.09,NNE,33,0.0,0.0,99,0.00,,,0.00,Wunderground v.1.15,2013-07-10 11:50:00,
2013-07-10 07:55:00,72.8,72.5,30.09,NNE,33,0.0,0.0,99,0.00,,,0.00,Wunderground v.1.15,2013-07-10 11:55:00,
2013-07-10 08:00:00,73.3,73.0,30.08,NNE,32,0.0,0.0,99,0.00,,,0.00,Wunderground v.1.15,2013-07-10 12:00:00,
2013-07-10 08:05:00,73.7,73.4,30.09,NNE,33,0.0,0.0,99,0.00,,,0.00,Wunderground v.1.15,2013-07-10 12:05:00,
2013-07-10 08:10:00,74.0,73.7,30.09,NNE,33,0.0,0.0,99,0.00,,,0.00,Wunderground v.1.15,2013-07-10 12:10:00,
2013-07-10 08:15:00,74.6,74.3,30.09,NNE,32,0.0,0.0,99,0.00,,,0.00,Wunderground v.1.15,2013-07-10 12:15:00,
2013-07-10 08:22:00,75.0,75.0,30.09,NE,39,0.0,-999.0,99,-99.99,,,0.00,weatherlink.com 1.10,2013-07-10 12:22:00,
2013-07-10 08:30:00,75.7,75.4,30.09,NNE,31,0.0,0.0,99,0.00,,,0.00,Wunderground v.1.15,2013-07-10 12:30:00,
2013-07-10 08:35:00,76.2,75.9,30.09,ENE,67,0.0,0.0,99,0.00,,,0.00,Wunderground v.1.15,2013-07-10 12:35:00,
2013-07-10 08:40:00,76.5,76.2,30.09,East,90,0.0,0.0,99,0.00,,,0.00,Wunderground v.1.15,2013-07-10 12:40:00,
2013-07-10 08:45:00,76.9,76.3,30.09,NE,40,0.0,0.0,98,0.00,,,0.00,Wunderground v.1.15,2013-07-10 12:45:00,
2013-07-10 08:50:00,77.9,77.0,30.09,NE,34,0.0,0.0,97,0.00,,,0.00,Wunderground v.1.15,2013-07-10 12:50:00,
2013-07-10 09:00:00,79.9,77.0,30.09,ENE,72,0.0,0.0,91,0.00,,,0.00,Wunderground v.1.15,2013-07-10 13:00:00,
2013-07-10 09:05:00,80.6,77.1,30.09,WNW,293,0.0,1.0,89,0.00,,,0.00,Wunderground v.1.15,2013-07-10 13:05:00,
2013-07-10 09:10:00,81.4,76.8,30.09,North,1,0.0,0.0,86,0.00,,,0.00,Wunderground v.1.15,2013-07-10 13:10:00,
2013-07-10 09:15:00,82.3,76.6,30.09,ENE,66,0.0,0.0,83,0.00,,,0.00,Wunderground v.1.15,2013-07-10 13:15:00,
2013-07-10 09:20:00,83.1,77.4,30.10,ENE,66,0.0,0.0,83,0.00,,,0.00,Wunderground v.1.15,2013-07-10 13:20:00,
2013-07-10 09:25:00,83.9,77.8,30.10,ENE,65,0.0,0.0,82,0.00,,,0.00,Wunderground v.1.15,2013-07-10 13:25:00,
2013-07-10 09:30:00,84.6,78.5,30.09,ENE,67,0.0,0.0,82,0.00,,,0.00,Wunderground v.1.15,2013-07-10 13:30:00,
2013-07-10 09:38:00,85.3,77.0,30.09,West,279,0.0,-999.0,77,-99.99,,,0.00,weatherlink.com 1.10,2013-07-10 13:38:00,
2013-07-10 09:45:00,85.7,78.0,30.09,East,81,0.0,0.0,78,0.00,,,0.00,Wunderground v.1.15,2013-07-10 13:45:00,
2013-07-10 09:50:00,85.6,76.8,30.09,ENE,74,0.0,3.0,75,0.00,,,0.00,Wunderground v.1.15,2013-07-10 13:50:00,
2013-07-10 09:55:00,85.5,77.1,30.09,East,93,0.0,3.0,76,0.00,,,0.00,Wunderground v.1.15,2013-07-10 13:55:00,
2013-07-10 10:00:00,85.8,77.4,30.09,NE,56,0.0,1.0,76,0.00,,,0.00,Wunderground v.1.15,2013-07-10 14:00:00,
2013-07-10 10:05:00,85.6,77.9,30.09,SW,235,1.0,1.0,78,0.00,,,0.00,Wunderground v.1.15,2013-07-10 14:05:00,
2013-07-10 10:10:00,86.1,76.8,30.09,NE,50,1.0,1.0,74,0.00,,,0.00,Wunderground v.1.15,2013-07-10 14:10:00,
2013-07-10 10:20:00,85.7,76.9,30.09,NNE,32,1.0,1.0,75,0.00,,,0.00,Wunderground v.1.15,2013-07-10 14:20:00,
2013-07-10 10:25:00,85.8,78.1,30.09,ENE,75,1.0,2.0,78,0.00,,,0.00,Wunderground v.1.15,2013-07-10 14:25:00,
2013-07-10 10:35:00,86.0,77.1,30.09,ESE,121,1.0,1.0,75,0.00,,,0.00,Wunderground v.1.15,2013-07-10 14:35:00,
2013-07-10 10:40:00,85.5,76.3,30.09,NNE,31,1.0,1.0,74,0.00,,,0.00,Wunderground v.1.15,2013-07-10 14:40:00,
2013-07-10 10:45:00,85.0,75.8,30.09,North,355,2.0,2.0,74,0.00,,,0.00,Wunderground v.1.15,2013-07-10 14:45:00,
2013-07-10 10:50:00,85.1,76.7,30.09,East,87,1.0,1.0,76,0.00,,,0.00,Wunderground v.1.15,2013-07-10 14:50:00,
2013-07-10 10:55:00,85.0,75.8,30.09,ENE,77,1.0,1.0,74,0.00,,,0.00,Wunderground v.1.15,2013-07-10 14:55:00,
2013-07-10 11:05:00,84.7,75.9,30.09,East,89,2.0,2.0,75,0.00,,,0.00,Wunderground v.1.15,2013-07-10 15:05:00,
2013-07-10 11:10:00,84.8,75.2,30.09,East,90,2.0,3.0,73,0.00,,,0.00,Wunderground v.1.15,2013-07-10 15:10:00,
2013-07-10 11:15:00,84.7,76.3,30.09,ESE,108,1.0,3.0,76,0.00,,,0.00,Wunderground v.1.15,2013-07-10 15:15:00,
2013-07-10 11:20:00,85.4,76.2,30.09,NNW,333,1.0,1.0,74,0.00,,,0.00,Wunderground v.1.15,2013-07-10 15:20:00,
2013-07-10 11:25:00,85.7,76.9,30.09,ENE,63,1.0,1.0,75,0.00,,,0.00,Wunderground v.1.15,2013-07-10 15:25:00,
2013-07-10 11:30:00,85.7,76.0,30.09,North,354,1.0,1.0,73,0.00,,,0.00,Wunderground v.1.15,2013-07-10 15:30:00,
2013-07-10 11:38:00,85.5,76.0,30.09,NNE,17,3.0,-999.0,74,-99.99,,,0.00,weatherlink.com 1.10,2013-07-10 15:38:00,
2013-07-10 11:45:00,85.3,76.5,30.09,NNW,342,1.0,2.0,75,0.00,,,0.00,Wunderground v.1.15,2013-07-10 15:45:00,
2013-07-10 11:50:00,85.8,76.1,30.09,ESE,117,1.0,1.0,73,0.00,,,0.00,Wunderground v.1.15,2013-07-10 15:50:00,
2013-07-10 11:55:00,86.3,77.4,30.09,SE,144,1.0,1.0,75,0.00,,,0.00,Wunderground v.1.15,2013-07-10 15:55:00,
2013-07-10 12:00:00,86.3,76.6,30.09,NE,46,1.0,1.0,73,0.00,,,0.00,Wunderground v.1.15,2013-07-10 16:00:00,
2013-07-10 12:05:00,86.1,76.0,30.09,NNE,29,1.0,1.0,72,0.00,,,0.00,Wunderground v.1.15,2013-07-10 16:05:00,
2013-07-10 12:15:00,85.8,77.4,30.09,ESE,119,1.0,2.0,76,0.00,,,0.00,Wunderground v.1.15,2013-07-10 16:15:00,
2013-07-10 12:20:00,86.3,76.2,30.09,WNW,295,1.0,1.0,72,0.00,,,0.00,Wunderground v.1.15,2013-07-10 16:20:00,
2013-07-10 12:30:00,85.9,75.8,30.08,WSW,238,2.0,2.0,72,0.00,,,0.00,Wunderground v.1.15,2013-07-10 16:30:00,
2013-07-10 12:35:00,85.8,76.1,30.09,NNE,31,2.0,2.0,73,0.00,,,0.00,Wunderground v.1.15,2013-07-10 16:35:00,
2013-07-10 12:40:00,85.9,76.6,30.09,ESE,122,2.0,2.0,74,0.00,,,0.00,Wunderground v.1.15,2013-07-10 16:40:00,
2013-07-10 12:45:00,86.0,76.3,30.08,NE,53,1.0,2.0,73,0.00,,,0.00,Wunderground v.1.15,2013-07-10 16:45:00,
2013-07-10 12:50:00,86.1,76.4,30.08,ENE,72,1.0,2.0,73,0.00,,,0.00,Wunderground v.1.15,2013-07-10 16:50:00,
2013-07-10 12:55:00,86.5,76.0,30.08,NE,37,1.0,2.0,71,0.00,,,0.00,Wunderground v.1.15,2013-07-10 16:55:00,
2013-07-10 13:00:00,87.1,76.5,30.08,NE,51,1.0,1.0,71,0.00,,,0.00,Wunderground v.1.15,2013-07-10 17:00:00,
2013-07-10 13:08:00,86.8,76.0,30.07,ENE,77,3.0,-999.0,71,-99.99,,,0.00,weatherlink.com 1.10,2013-07-10 17:08:00,
2013-07-10 13:15:00,87.0,75.6,30.07,ENE,63,1.0,2.0,69,0.00,,,0.00,Wunderground v.1.15,2013-07-10 17:15:00,
2013-07-10 13:20:00,86.4,75.0,30.07,NE,41,1.0,1.0,69,0.00,,,0.00,Wunderground v.1.15,2013-07-10 17:20:00,
2013-07-10 13:25:00,86.2,75.7,30.07,SE,127,2.0,2.0,71,0.00,,,0.00,Wunderground v.1.15,2013-07-10 17:25:00,
2013-07-10 13:30:00,86.6,76.1,30.07,ENE,78,1.0,3.0,71,0.00,,,0.00,Wunderground v.1.15,2013-07-10 17:30:00,
2013-07-10 13:35:00,86.3,75.4,30.07,NNE,27,1.0,3.0,70,0.00,,,0.00,Wunderground v.1.15,2013-07-10 17:35:00,
2013-07-10 13:53:00,86.5,76.0,30.06,ESE,105,0.0,-999.0,71,-99.99,,,0.00,weatherlink.com 1.10,2013-07-10 17:53:00,
2013-07-10 14:08:00,86.5,75.0,30.05,ENE,69,4.0,-999.0,69,-99.99,,,0.00,weatherlink.com 1.10,2013-07-10 18:08:00,
2013-07-10 14:23:00,86.0,75.0,30.04,ENE,63,1.0,-999.0,70,-99.99,,,0.00,weatherlink.com 1.10,2013-07-10 18:23:00,
2013-07-10 14:38:00,85.7,74.0,30.04,ENE,58,5.0,-999.0,68,-99.99,,,0.00,weatherlink.com 1.10,2013-07-10 18:38:00,
2013-07-10 14:53:00,85.9,76.0,30.03,ENE,69,6.0,-999.0,72,-99.99,,,0.00,weatherlink.com 1.10,2013-07-10 18:53:00,
2013-07-10 15:08:00,86.4,76.0,30.03,East,98,1.0,-999.0,72,-99.99,,,0.00,weatherlink.com 1.10,2013-07-10 19:08:00,
2013-07-10 15:23:00,85.6,75.0,30.03,NE,40,1.0,-999.0,71,-99.99,,,0.00,weatherlink.com 1.10,2013-07-10 19:23:00,
2013-07-10 15:38:00,85.5,76.0,30.03,SSW,194,0.0,-999.0,72,-99.99,,,0.00,weatherlink.com 1.10,2013-07-10 19:38:00,
2013-07-10 15:53:00,85.7,76.0,30.02,NE,40,2.0,-999.0,73,-99.99,,,0.00,weatherlink.com 1.10,2013-07-10 19:53:00,
2013-07-10 16:08:00,85.2,75.0,30.02,East,87,2.0,-999.0,71,-99.99,,,0.00,weatherlink.com 1.10,2013-07-10 20:08:00,
2013-07-10 16:23:00,84.6,75.0,30.02,NW,323,1.0,-999.0,72,-99.99,,,0.00,weatherlink.com 1.10,2013-07-10 20:23:00,
2013-07-10 16:38:00,84.0,75.0,30.01,NE,40,0.0,-999.0,74,-99.99,,,0.00,weatherlink.com 1.10,2013-07-10 20:38:00,
2013-07-10 16:53:00,83.8,75.0,30.01,ENE,76,1.0,-999.0,75,-99.99,,,0.00,weatherlink.com 1.10,2013-07-10 20:53:00,
2013-07-10 17:08:00,83.8,75.0,30.00,West,271,0.0,-999.0,75,-99.99,,,0.00,weatherlink.com 1.10,2013-07-10 21:08:00,
2013-07-10 17:23:00,83.4,75.0,30.00,ENE,69,0.0,-999.0,76,-99.99,,,0.00,weatherlink.com 1.10,2013-07-10 21:23:00,
2013-07-10 17:38:00,82.9,75.0,30.00,West,261,1.0,-999.0,77,-99.99,,,0.00,weatherlink.com 1.10,2013-07-10 21:38:00,
2013-07-10 17:53:00,82.3,74.0,30.00,West,263,1.0,-999.0,77,-99.99,,,0.00,weatherlink.com 1.10,2013-07-10 21:53:00,
2013-07-10 18:08:00,81.9,75.0,30.00,NE,38,0.0,-999.0,80,-99.99,,,0.00,weatherlink.com 1.10,2013-07-10 22:08:00,
2013-07-10 18:23:00,81.7,75.0,29.99,WNW,303,0.0,-999.0,80,-99.99,,,0.00,weatherlink.com 1.10,2013-07-10 22:23:00,
2013-07-10 18:38:00,81.5,75.0,29.98,NE,38,0.0,-999.0,81,-99.99,,,0.00,weatherlink.com 1.10,2013-07-10 22:38:00,
2013-07-10 18:53:00,81.2,75.0,29.98,NE,40,2.0,-999.0,82,-99.99,,,0.00,weatherlink.com 1.10,2013-07-10 22:53:00,
2013-07-10 19:08:00,80.8,75.0,29.98,East,86,1.0,-999.0,82,-99.99,,,0.00,weatherlink.com 1.10,2013-07-10 23:08:00,
2013-07-10 19:23:00,80.5,75.0,29.97,NW,306,0.0,-999.0,83,-99.99,,,0.00,weatherlink.com 1.10,2013-07-10 23:23:00,
2013-07-10 19:38:00,80.1,75.0,29.97,NNW,336,4.0,-999.0,83,-99.99,,,0.00,weatherlink.com 1.10,2013-07-10 23:38:00,
2013-07-10 19:53:00,79.8,75.0,29.98,NE,56,2.0,-999.0,84,-99.99,,,0.00,weatherlink.com 1.10,2013-07-10 23:53:00,
2013-07-10 20:08:00,79.5,75.0,29.98,NE,37,0.0,-999.0,85,-99.99,,,0.00,weatherlink.com 1.10,2013-07-11 00:08:00,
2013-07-10 20:23:00,79.2,75.0,29.98,ENE,63,1.0,-999.0,86,-99.99,,,0.00,weatherlink.com 1.10,2013-07-11 00:23:00,
2013-07-10 20:38:00,79.0,75.0,29.98,NNW,336,1.0,-999.0,87,-99.99,,,0.00,weatherlink.com 1.10,2013-07-11 00:38:00,
2013-07-10 20:53:00,78.9,75.0,29.98,NNE,32,1.0,-999.0,87,-99.99,,,0.00,weatherlink.com 1.10,2013-07-11 00:53:00,
2013-07-10 21:08:00,78.8,75.0,29.99,ENE,58,1.0,-999.0,87,-99.99,,,0.00,weatherlink.com 1.10,2013-07-11 01:08:00,
2013-07-10 21:23:00,78.7,75.0,29.99,ENE,67,0.0,-999.0,88,-99.99,,,0.00,weatherlink.com 1.10,2013-07-11 01:23:00,
2013-07-10 21:38:00,78.6,75.0,30.00,NNE,28,0.0,-999.0,88,-99.99,,,0.00,weatherlink.com 1.10,2013-07-11 01:38:00,
2013-07-10 21:53:00,78.5,75.0,30.00,NNW,346,0.0,-999.0,89,-99.99,,,0.00,weatherlink.com 1.10,2013-07-11 01:53:00,
2013-07-10 22:08:00,78.4,75.0,30.00,NNW,338,0.0,-999.0,89,-99.99,,,0.00,weatherlink.com 1.10,2013-07-11 02:08:00,
2013-07-10 22:23:00,78.5,75.0,30.01,NE,43,0.0,-999.0,90,-99.99,,,0.00,weatherlink.com 1.10,2013-07-11 02:23:00,
2013-07-10 22:38:00,78.8,76.0,30.01,NW,312,0.0,-999.0,90,-99.99,,,0.00,weatherlink.com 1.10,2013-07-11 02:38:00,
2013-07-10 22:53:00,78.8,75.0,30.02,NE,50,0.0,-999.0,89,-99.99,,,0.00,weatherlink.com 1.10,2013-07-11 02:53:00,
2013-07-10 23:08:00,78.7,75.0,30.03,NW,321,0.0,-999.0,89,-99.99,,,0.00,weatherlink.com 1.10,2013-07-11 03:08:00,
2013-07-10 23:23:00,78.5,75.0,30.03,NE,38,0.0,-999.0,89,-99.99,,,0.00,weatherlink.com 1.10,2013-07-11 03:23:00,
2013-07-10 23:38:00,78.3,75.0,30.03,NE,36,0.0,-999.0,90,-99.99,,,0.00,weatherlink.com 1.10,2013-07-11 03:38:00,
2013-07-10 23:53:00,78.0,75.0,30.02,NW,313,0.0,-999.0,91,-99.99,,,0.00,weatherlink.com 1.10,2013-07-11 03:53:00,